Time;durP1;ratioP1;P1;durP2;ratioP2;P2;SDS_P1;SDS_P2;PMS_P1;PMS_P2;Temp;Humidity;BMP_temperature;BMP_pressure;BME280_temperature;BME280_humidity;BME280_pressure;Samples;Min_cycle;Max_cycle;Signal;HPM_P1;HPM_P2
2022/04/26 03:36:39;;;;;;;7.00;4.85;;;15.40;90.70;;;;;;6370759;22;20090;-80
2022/04/26 03:39:06;;;;;;;6.53;5.88;;;15.40;90.80;;;;;;6342967;22;20006;-80
2022/04/26 03:41:33;;;;;;;6.25;4.55;;;15.30;90.90;;;;;;6371118;22;20072;-80
2022/04/26 03:43:59;;;;;;;6.50;4.65;;;15.30;91.00;;;;;;6371621;22;20014;-80
2022/04/26 03:46:25;;;;;;;5.03;3.80;;;15.30;90.90;;;;;;6371309;22;20039;-80
2022/04/26 03:48:51;;;;;;;5.10;4.28;;;15.40;90.80;;;;;;6371263;22;20005;-83
2022/04/26 03:51:16;;;;;;;5.40;4.25;;;15.30;90.80;;;;;;6372237;22;20002;-81
2022/04/26 03:53:42;;;;;;;11.80;6.90;;;15.30;90.80;;;;;;6371298;22;20017;-79
2022/04/26 03:56:08;;;;;;;5.53;4.55;;;15.20;90.70;;;;;;6371344;22;20030;-80
2022/04/26 03:58:33;;;;;;;5.25;4.18;;;15.20;90.90;;;;;;6370919;22;19995;-78
2022/04/26 04:01:00;;;;;;;5.53;4.10;;;15.20;90.90;;;;;;6370857;22;19998;-78
2022/04/26 04:03:26;;;;;;;6.03;4.05;;;15.20;90.80;;;;;;6370660;22;20077;-79
2022/04/26 04:05:52;;;;;;;4.35;3.95;;;15.20;90.70;;;;;;6370677;22;19998;-79
2022/04/26 04:08:18;;;;;;;4.97;3.33;;;15.20;90.80;;;;;;6370584;22;20016;-81
2022/04/26 04:10:44;;;;;;;6.55;4.53;;;15.20;90.80;;;;;;6369477;22;20613;-81
2022/04/26 04:13:10;;;;;;;4.57;3.90;;;15.20;90.80;;;;;;6370975;22;19994;-80
2022/04/26 04:15:36;;;;;;;6.20;3.97;;;15.20;90.80;;;;;;6370553;22;20024;-81
2022/04/26 04:18:02;;;;;;;5.30;3.58;;;15.20;90.80;;;;;;6369883;22;19998;-80
2022/04/26 04:20:29;;;;;;;4.95;3.85;;;15.10;90.90;;;;;;6370414;22;20018;-80
2022/04/26 04:22:56;;;;;;;6.28;4.80;;;15.00;91.00;;;;;;6370241;22;20033;-80
2022/04/26 04:25:22;;;;;;;3.88;3.47;;;14.70;91.60;;;;;;6370658;22;19998;-80
2022/04/26 04:27:48;;;;;;;6.13;4.53;;;14.70;91.70;;;;;;6370293;22;20002;-82
2022/04/26 04:30:14;;;;;;;4.65;4.10;;;14.80;91.70;;;;;;6371096;22;20296;-81
2022/04/26 04:32:40;;;;;;;4.50;3.60;;;14.80;91.50;;;;;;6370890;22;20489;-83
2022/04/26 04:35:06;;;;;;;4.68;3.88;;;14.90;91.30;;;;;;6371336;22;19998;-83
2022/04/26 04:37:32;;;;;;;4.50;3.33;;;15.00;91.20;;;;;;6371794;22;19999;-83
2022/04/26 04:39:59;;;;;;;5.25;3.45;;;15.10;91.00;;;;;;6371002;22;20020;-84
2022/04/26 04:42:25;;;;;;;5.25;3.03;;;15.20;90.90;;;;;;6371384;22;19999;-88
2022/04/26 04:44:50;;;;;;;5.20;3.47;;;15.20;90.80;;;;;;6370142;22;20003;-81
2022/04/26 04:47:16;;;;;;;8.40;3.30;;;15.20;90.80;;;;;;6342563;22;20010;-81
2022/04/26 04:50:01;;;;;;;3.35;3.05;;;15.20;90.80;;;;;;6370651;22;19998;-81
2022/04/26 04:52:26;;;;;;;4.47;3.72;;;15.30;90.80;;;;;;6369371;22;20436;-79
2022/04/26 04:54:52;;;;;;;6.25;4.55;;;15.30;90.80;;;;;;6370279;22;19994;-79
2022/04/26 04:57:18;;;;;;;4.35;3.80;;;15.30;90.80;;;;;;6370395;22;19994;-80
2022/04/26 04:59:46;;;;;;;4.53;3.67;;;15.20;90.90;;;;;;6341986;22;20003;-80
2022/04/26 05:02:24;;;;;;;4.05;3.30;;;15.20;90.90;;;;;;6370707;22;20002;-81
2022/04/26 05:04:50;;;;;;;6.18;4.90;;;15.20;90.90;;;;;;6369272;22;20008;-80
2022/04/26 05:07:15;;;;;;;8.20;6.45;;;15.00;91.10;;;;;;6368312;22;20752;-79
2022/04/26 05:09:41;;;;;;;8.00;5.80;;;14.80;91.60;;;;;;6368740;22;20420;-80
2022/04/26 05:12:08;;;;;;;8.20;6.13;;;14.70;92.00;;;;;;6369043;22;20320;-79
2022/04/26 05:14:33;;;;;;;5.32;4.60;;;14.60;92.30;;;;;;6340984;22;20025;-79
2022/04/26 05:16:59;;;;;;;6.35;3.92;;;14.60;92.30;;;;;;6367714;22;19998;-85
2022/04/26 05:19:24;;;;;;;6.47;3.60;;;14.60;92.50;;;;;;6369143;22;20002;-78
2022/04/26 05:21:50;;;;;;;4.90;3.67;;;14.70;92.50;;;;;;6369656;22;19998;-78
2022/04/26 05:27:00;;;;;;;6.93;3.28;;;14.70;92.40;;;;;;6369675;22;20059;-79
2022/04/26 05:29:26;;;;;;;4.22;2.70;;;14.70;92.80;;;;;;6368624;22;20037;-78
2022/04/26 05:31:52;;;;;;;3.25;2.33;;;14.70;92.50;;;;;;6341759;22;19999;-78
2022/04/26 05:34:17;;;;;;;8.13;3.50;;;14.90;92.30;;;;;;6368126;22;20419;-78
2022/04/26 05:36:43;;;;;;;4.63;2.30;;;14.90;92.50;;;;;;6368737;22;20034;-79
2022/04/26 05:39:09;;;;;;;4.65;2.53;;;15.00;92.20;;;;;;6369513;22;20116;-78
2022/04/26 05:41:35;;;;;;;4.65;2.20;;;15.00;92.20;;;;;;6367499;22;19995;-78
2022/04/26 05:44:04;;;;;;;3.75;2.63;;;15.10;92.20;;;;;;6341640;22;20081;-79
2022/04/26 05:46:30;;;;;;;5.50;2.35;;;15.10;92.00;;;;;;6338270;22;20021;-79
2022/04/26 05:48:56;;;;;;;4.28;2.28;;;15.10;92.10;;;;;;6369996;22;20077;-79
2022/04/26 05:51:23;;;;;;;3.95;2.40;;;15.10;92.10;;;;;;6370373;22;20065;-78
2022/04/26 05:53:48;;;;;;;3.42;2.22;;;15.10;92.00;;;;;;6370323;22;20002;-79
2022/04/26 05:56:15;;;;;;;4.13;2.83;;;15.20;91.90;;;;;;6370364;22;20086;-78
2022/04/26 05:58:41;;;;;;;4.28;3.03;;;15.20;91.90;;;;;;6369978;22;20427;-78
2022/04/26 06:01:07;;;;;;;5.97;2.53;;;15.20;91.80;;;;;;6369112;22;20005;-79
2022/04/26 06:03:33;;;;;;;3.95;2.85;;;15.20;91.70;;;;;;6369880;22;20010;-78
2022/04/26 06:05:59;;;;;;;7.00;2.85;;;15.30;91.70;;;;;;6370158;22;20002;-77
2022/04/26 06:08:25;;;;;;;4.60;2.20;;;15.20;91.80;;;;;;6369374;22;20357;-77
2022/04/26 06:10:51;;;;;;;3.40;2.20;;;15.20;91.80;;;;;;6369733;22;20009;-77
2022/04/26 06:13:17;;;;;;;5.00;2.83;;;15.30;91.70;;;;;;6342427;22;20009;-77
2022/04/26 06:15:42;;;;;;;2.60;1.88;;;15.30;91.70;;;;;;6369326;22;20020;-77
2022/04/26 06:18:08;;;;;;;5.15;3.05;;;15.30;91.60;;;;;;6369375;22;20010;-77
2022/04/26 06:20:34;;;;;;;5.13;3.83;;;15.30;91.70;;;;;;6341872;22;20348;-77
2022/04/26 06:23:00;;;;;;;3.83;2.13;;;15.20;92.00;;;;;;6369309;22;20060;-77
2022/04/26 06:25:26;;;;;;;5.55;3.80;;;15.10;92.20;;;;;;6369138;22;20063;-77
2022/04/26 06:27:52;;;;;;;5.40;3.13;;;14.90;92.40;;;;;;6363478;22;20027;-77
2022/04/26 06:30:17;;;;;;;3.70;2.30;;;14.80;92.90;;;;;;6340276;22;20383;-78
2022/04/26 06:32:43;;;;;;;1.70;1.60;;;14.90;93.10;;;;;;6367177;22;19995;-77
2022/04/26 06:35:10;;;;;;;3.42;1.98;;;15.00;93.00;;;;;;6364877;22;20006;-78
2022/04/26 06:37:36;;;;;;;3.85;2.40;;;15.10;92.90;;;;;;6368391;22;19999;-78
2022/04/26 06:40:03;;;;;;;3.80;2.22;;;15.20;92.60;;;;;;6341585;22;20626;-78
2022/04/26 06:42:29;;;;;;;3.42;2.30;;;15.20;92.50;;;;;;6341201;22;20002;-78
2022/04/26 06:44:55;;;;;;;4.00;2.50;;;15.30;92.50;;;;;;6368875;22;20003;-77
2022/04/26 06:47:20;;;;;;;3.05;2.17;;;15.40;92.40;;;;;;6368647;22;19999;-76
2022/04/26 06:49:46;;;;;;;4.90;2.45;;;15.50;92.00;;;;;;6342471;22;20011;-77
2022/04/26 06:52:12;;;;;;;4.13;2.10;;;15.50;91.60;;;;;;6371450;22;20362;-77
2022/04/26 06:54:37;;;;;;;3.92;2.40;;;15.60;91.70;;;;;;6344101;22;20484;-80
2022/04/26 06:57:03;;;;;;;5.20;2.67;;;15.60;91.50;;;;;;6372212;22;19999;-78
2022/04/26 06:59:29;;;;;;;4.65;2.33;;;15.60;91.40;;;;;;6371612;22;20002;-79
2022/04/26 07:01:55;;;;;;;3.25;2.00;;;15.70;91.40;;;;;;6344420;22;20054;-79
2022/04/26 07:04:21;;;;;;;2.97;2.20;;;15.80;91.20;;;;;;6369893;22;20005;-80
2022/04/26 07:06:48;;;;;;;5.45;2.50;;;15.80;91.10;;;;;;6371916;22;20003;-79
2022/04/26 07:09:14;;;;;;;8.73;4.78;;;15.90;90.90;;;;;;6371196;22;19998;-81
2022/04/26 07:11:42;;;;;;;8.93;4.43;;;15.90;90.50;;;;;;6344064;22;20024;-80
2022/04/26 07:14:11;;;;;;;6.53;3.00;;;15.60;90.80;;;;;;6371567;22;20120;-82
2022/04/26 07:16:37;;;;;;;5.07;2.35;;;15.40;91.50;;;;;;6371781;22;20018;-81
2022/04/26 07:19:04;;;;;;;5.70;2.97;;;15.50;91.50;;;;;;6371269;22;19995;-81
2022/04/26 07:21:29;;;;;;;3.80;2.22;;;15.50;91.30;;;;;;6339255;22;20013;-79
2022/04/26 07:23:55;;;;;;;4.35;2.40;;;15.70;91.50;;;;;;6342271;22;20007;-78
2022/04/26 07:26:20;;;;;;;4.60;2.53;;;15.80;91.50;;;;;;6370094;22;20036;-78
2022/04/26 07:28:46;;;;;;;7.88;3.13;;;15.90;91.20;;;;;;6369715;22;20069;-79
2022/04/26 07:31:12;;;;;;;3.92;2.05;;;15.90;90.70;;;;;;6368982;22;20002;-78
2022/04/26 07:36:22;;;;;;;4.68;2.47;;;15.90;90.90;;;;;;6366627;22;20017;-82
2022/04/26 07:38:49;;;;;;;5.10;2.15;;;16.00;90.60;;;;;;6370443;22;20040;-79
2022/04/26 07:41:15;;;;;;;6.97;3.30;;;16.10;90.60;;;;;;6372289;22;20428;-81
2022/04/26 07:43:41;;;;;;;14.27;2.83;;;16.00;90.50;;;;;;6343995;22;20034;-80
2022/04/26 07:46:07;;;;;;;6.57;3.78;;;16.00;90.80;;;;;;6371702;22;20002;-77
2022/04/26 07:48:37;;;;;;;7.95;4.10;;;15.80;90.70;;;;;;6370507;22;20135;-78
2022/04/26 07:51:04;;;;;;;10.95;3.60;;;15.80;90.80;;;;;;6369999;22;20604;-78
2022/04/26 07:53:30;;;;;;;6.30;3.55;;;15.60;91.20;;;;;;6368975;22;19998;-78
2022/04/26 07:55:55;;;;;;;11.30;4.57;;;15.60;91.50;;;;;;6370646;22;20025;-78
2022/04/26 07:58:21;;;;;;;7.43;5.07;;;15.20;92.20;;;;;;6370189;22;20056;-78
2022/04/26 08:00:46;;;;;;;6.28;2.90;;;15.10;92.20;;;;;;6368973;22;20009;-77
2022/04/26 08:03:13;;;;;;;3.30;2.45;;;15.10;93.00;;;;;;6341792;22;20010;-78
2022/04/26 08:05:39;;;;;;;5.40;2.17;;;15.50;92.90;;;;;;6369431;22;19999;-78
2022/04/26 08:08:05;;;;;;;3.65;2.20;;;15.80;92.30;;;;;;6369857;22;20347;-78
2022/04/26 08:10:31;;;;;;;4.07;2.33;;;16.10;92.00;;;;;;6369932;22;20686;-78
2022/04/26 08:12:57;;;;;;;4.22;1.58;;;16.40;91.30;;;;;;6368660;22;19994;-78
2022/04/26 08:15:22;;;;;;;6.38;3.20;;;16.60;90.30;;;;;;6368726;22;19998;-78
2022/04/26 08:17:48;;;;;;;3.70;2.00;;;16.40;89.30;;;;;;6368809;22;19998;-78
2022/04/26 08:20:15;;;;;;;8.15;4.30;;;16.50;89.90;;;;;;6364307;22;19999;-78
2022/04/26 08:22:40;;;;;;;7.05;3.47;;;16.00;90.00;;;;;;6369808;22;20009;-78
2022/04/26 08:27:51;;;;;;;3.88;2.50;;;15.70;91.10;;;;;;6369999;22;20016;-78
2022/04/26 08:30:17;;;;;;;3.90;2.28;;;15.90;91.00;;;;;;6342027;22;20006;-79
2022/04/26 08:32:46;;;;;;;3.38;1.95;;;16.10;90.80;;;;;;6369569;22;20296;-79
2022/04/26 08:35:15;;;;;;;4.93;2.45;;;16.30;90.50;;;;;;6370057;22;20424;-79
2022/04/26 08:37:42;;;;;;;4.15;2.08;;;16.40;90.10;;;;;;6370132;22;19995;-79
2022/04/26 08:40:09;;;;;;;4.78;2.08;;;16.50;90.30;;;;;;6369813;22;20009;-78
2022/04/26 08:42:35;;;;;;;9.65;2.65;;;16.50;89.50;;;;;;6369995;22;20009;-79
2022/04/26 08:45:01;;;;;;;10.38;3.38;;;16.70;88.30;;;;;;6369384;22;20002;-79
2022/04/26 08:52:57;;;;;;;4.22;2.13;;;16.90;88.00;;;;;;6369412;22;20016;-79
2022/04/26 08:55:22;;;;;;;7.80;2.70;;;17.00;87.10;;;;;;6369737;22;19994;-79
2022/04/26 08:57:48;;;;;;;7.07;2.97;;;16.90;86.40;;;;;;6369506;22;20001;-79
2022/04/26 09:00:15;;;;;;;4.65;1.63;;;16.90;86.80;;;;;;6369512;22;20439;-78
2022/04/26 09:02:40;;;;;;;4.22;2.00;;;17.00;87.20;;;;;;6368838;22;20006;-78
2022/04/26 09:05:11;;;;;;;3.72;2.15;;;17.10;86.40;;;;;;6369548;22;20006;-78
2022/04/26 09:07:37;;;;;;;3.80;1.65;;;17.00;86.60;;;;;;6368122;22;20003;-77
2022/04/26 09:10:09;;;;;;;3.15;1.70;;;17.20;86.80;;;;;;6368009;22;20032;-76
2022/04/26 09:13:01;;;;;;;4.65;1.70;;;17.30;86.60;;;;;;6368938;22;20021;-76
2022/04/26 09:15:34;;;;;;;4.03;1.50;;;17.50;86.00;;;;;;6341384;22;19999;-78
2022/04/26 09:18:24;;;;;;;4.20;1.80;;;17.60;85.60;;;;;;6369256;22;19998;-77
2022/04/26 09:20:54;;;;;;;6.35;2.33;;;17.60;84.20;;;;;;6369093;22;19998;-76
2022/04/26 09:23:27;;;;;;;4.17;1.87;;;17.60;84.40;;;;;;6369275;22;20270;-76
2022/04/26 09:25:54;;;;;;;3.90;1.92;;;17.60;85.00;;;;;;6370009;22;20339;-76
2022/04/26 09:28:30;;;;;;;4.10;2.20;;;17.50;83.90;;;;;;6369269;22;20013;-76
2022/04/26 09:30:56;;;;;;;4.70;1.77;;;17.60;84.80;;;;;;6368698;22;20002;-76
2022/04/26 09:33:52;;;;;;;4.80;1.98;;;17.50;83.90;;;;;;6367815;22;20055;-76
2022/04/26 09:36:28;;;;;;;2.30;1.20;;;17.60;83.80;;;;;;6336568;22;20404;-76
2022/04/26 09:41:33;;;;;;;3.53;1.35;;;18.00;82.70;;;;;;6347962;22;20362;-76
2022/04/26 09:44:04;;;;;;;3.03;1.45;;;17.90;82.30;;;;;;6339608;22;20013;-77
2022/04/26 09:46:47;;;;;;;6.53;1.80;;;18.10;83.20;;;;;;6367319;22;20297;-76
2022/04/26 09:49:15;;;;;;;5.60;1.80;;;18.20;80.70;;;;;;6340310;22;20482;-77
2022/04/26 09:51:42;;;;;;;5.35;2.13;;;18.10;81.00;;;;;;6341299;22;19999;-77
2022/04/26 09:54:08;;;;;;;4.85;1.52;;;18.20;81.90;;;;;;6368540;22;20002;-77
2022/04/26 09:56:34;;;;;;;1.75;1.10;;;18.30;81.80;;;;;;6369087;22;20378;-77
2022/04/26 09:59:02;;;;;;;8.98;2.10;;;18.30;81.80;;;;;;6369643;22;20324;-76
2022/04/26 10:01:39;;;;;;;2.33;1.38;;;18.40;80.30;;;;;;6367704;22;19998;-77
2022/04/26 10:04:08;;;;;;;2.38;1.15;;;18.50;80.50;;;;;;6338622;22;20002;-77
2022/04/26 10:06:35;;;;;;;3.25;1.48;;;18.60;80.80;;;;;;6367120;22;20006;-77
2022/04/26 10:09:10;;;;;;;2.28;1.13;;;18.80;80.50;;;;;;6367014;22;19998;-77
2022/04/26 10:11:37;;;;;;;5.57;1.88;;;18.90;79.40;;;;;;6366831;22;20020;-77
2022/04/26 10:14:10;;;;;;;4.30;1.27;;;19.10;78.50;;;;;;6366719;22;19999;-77
2022/04/26 10:16:38;;;;;;;3.67;1.40;;;19.00;79.00;;;;;;6368192;22;20071;-77
2022/04/26 10:19:07;;;;;;;2.60;1.25;;;18.90;78.80;;;;;;6341002;22;20344;-77
2022/04/26 10:21:35;;;;;;;3.13;1.35;;;18.90;78.70;;;;;;6369121;22;20006;-76
2022/04/26 10:24:04;;;;;;;3.30;1.50;;;18.90;79.10;;;;;;6342314;22;20034;-76
2022/04/26 10:26:39;;;;;;;3.80;1.67;;;19.00;78.80;;;;;;6371035;22;20067;-77
2022/04/26 10:29:07;;;;;;;5.50;1.40;;;18.80;77.90;;;;;;6371615;22;20006;-77
2022/04/26 10:31:55;;;;;;;4.40;1.42;;;18.80;78.20;;;;;;6368736;22;20014;-78
2022/04/26 10:34:21;;;;;;;3.53;1.40;;;18.90;78.40;;;;;;6366641;22;20055;-95
2022/04/26 10:37:56;;;;;;;6.93;1.65;;;18.90;78.60;;;;;;6367384;22;20038;-92
2022/04/26 10:41:00;;;;;;;6.13;1.70;;;18.90;78.20;;;;;;6330564;22;20518;-75
2022/04/26 10:43:26;;;;;;;3.45;1.50;;;18.80;78.90;;;;;;6342818;22;20089;-76
2022/04/26 10:46:08;;;;;;;3.58;1.80;;;18.80;78.90;;;;;;6342590;22;20032;-75
2022/04/26 10:48:34;;;;;;;2.80;1.35;;;19.00;78.80;;;;;;6369705;22;20033;-75
2022/04/26 10:51:38;;;;;;;3.08;1.10;;;19.10;78.20;;;;;;6370723;22;19998;-75
2022/04/26 10:54:04;;;;;;;3.78;1.70;;;19.20;78.10;;;;;;6371325;22;19998;-76
2022/04/26 10:56:31;;;;;;;5.63;2.20;;;19.30;77.70;;;;;;6371056;22;20065;-75
2022/04/26 10:58:57;;;;;;;3.72;1.60;;;19.30;76.30;;;;;;6370589;22;20001;-75
2022/04/26 11:01:24;;;;;;;5.90;1.63;;;19.20;76.90;;;;;;6370442;22;20026;-75
2022/04/26 11:03:55;;;;;;;4.63;1.40;;;19.40;76.70;;;;;;6370839;22;20002;-76
2022/04/26 11:06:37;;;;;;;3.65;1.60;;;19.50;76.30;;;;;;6369599;22;20003;-76
2022/04/26 11:09:14;;;;;;;2.47;1.35;;;19.70;75.80;;;;;;6369353;22;20003;-78
2022/04/26 11:11:51;;;;;;;3.58;1.55;;;19.80;75.90;;;;;;6341888;22;20079;-76
2022/04/26 11:14:17;;;;;;;3.20;1.67;;;20.00;75.60;;;;;;6341728;22;20002;-76
2022/04/26 11:17:00;;;;;;;2.30;1.00;;;20.00;74.50;;;;;;6369621;22;20115;-76
2022/04/26 11:19:30;;;;;;;2.63;1.33;;;19.90;74.40;;;;;;6369896;22;20301;-77
2022/04/26 11:22:02;;;;;;;1.75;1.02;;;19.90;74.50;;;;;;6369949;22;20005;-77
2022/04/26 11:29:57;;;;;;;2.03;1.15;;;19.10;75.00;;;;;;6368837;22;20119;-78
2022/04/26 11:32:43;;;;;;;3.42;1.40;;;19.40;75.70;;;;;;6369167;22;19995;-76
2022/04/26 11:35:14;;;;;;;4.13;2.05;;;19.60;75.50;;;;;;6369549;22;20442;-78
2022/04/26 11:37:47;;;;;;;3.53;1.30;;;19.50;74.80;;;;;;6369733;22;20010;-77
2022/04/26 11:40:36;;;;;;;4.53;1.63;;;19.70;75.00;;;;;;6340869;22;20025;-77
2022/04/26 11:43:13;;;;;;;4.05;1.73;;;20.30;73.10;;;;;;6341522;22;20417;-77
2022/04/26 11:45:42;;;;;;;4.88;1.80;;;20.70;73.10;;;;;;6341622;22;20040;-76
2022/04/26 11:48:10;;;;;;;11.23;2.55;;;21.10;69.70;;;;;;6341480;22;20093;-77
2022/04/26 11:50:36;;;;;;;3.45;1.83;;;21.00;68.20;;;;;;6369238;22;20083;-77
2022/04/26 11:53:11;;;;;;;10.40;2.88;;;21.00;70.60;;;;;;6369088;22;19998;-77
2022/04/26 11:55:39;;;;;;;4.20;1.67;;;20.70;69.50;;;;;;6341523;22;20085;-77
2022/04/26 11:58:09;;;;;;;6.05;2.83;;;20.60;70.10;;;;;;6369424;22;19999;-76
2022/04/26 12:00:35;;;;;;;8.00;3.30;;;19.80;71.10;;;;;;6369078;22;20006;-77
2022/04/26 12:03:02;;;;;;;4.45;2.30;;;19.60;71.40;;;;;;6369027;22;20320;-76
2022/04/26 12:05:43;;;;;;;7.15;2.33;;;19.50;73.30;;;;;;6367605;22;20009;-76
2022/04/26 12:08:12;;;;;;;4.63;1.98;;;19.70;72.70;;;;;;6338702;22;20081;-76
2022/04/26 12:10:38;;;;;;;6.03;2.13;;;19.90;72.50;;;;;;6367090;22;19998;-77
2022/04/26 12:13:05;;;;;;;4.00;1.40;;;19.90;70.30;;;;;;6368978;22;20073;-76
2022/04/26 12:15:34;;;;;;;4.35;1.70;;;20.00;71.50;;;;;;6340374;22;20059;-76
2022/04/26 12:18:09;;;;;;;2.15;1.23;;;20.00;72.00;;;;;;6368606;22;19995;-77
2022/04/26 12:21:02;;;;;;;5.28;2.13;;;19.90;72.50;;;;;;6370217;22;20030;-77
2022/04/26 12:23:29;;;;;;;3.90;1.50;;;19.90;72.50;;;;;;6342410;22;20009;-77
2022/04/26 12:26:04;;;;;;;3.53;1.52;;;20.00;72.30;;;;;;6370302;22;20328;-77
2022/04/26 12:28:30;;;;;;;5.07;1.30;;;20.10;72.40;;;;;;6337720;22;20013;-77
2022/04/26 12:30:57;;;;;;;3.60;1.50;;;20.00;72.70;;;;;;6366303;22;20018;-78
2022/04/26 12:33:31;;;;;;;2.70;1.40;;;20.00;72.70;;;;;;6338348;22;20003;-77
2022/04/26 12:36:02;;;;;;;4.95;1.83;;;20.00;72.90;;;;;;6366043;22;20335;-77
2022/04/26 12:38:28;;;;;;;5.20;1.60;;;19.90;72.80;;;;;;6338217;22;20300;-77
2022/04/26 12:41:05;;;;;;;2.15;1.13;;;19.70;73.00;;;;;;6365510;22;20363;-77
2022/04/26 12:43:32;;;;;;;4.72;1.65;;;19.70;73.20;;;;;;6338123;22;20078;-77
2022/04/26 12:45:59;;;;;;;3.17;1.30;;;19.70;73.60;;;;;;6366057;22;20002;-77
2022/04/26 12:51:12;;;;;;;3.90;1.67;;;19.70;73.90;;;;;;6365224;22;20037;-77
2022/04/26 12:53:38;;;;;;;3.55;1.17;;;19.60;73.70;;;;;;6338664;22;20120;-77
2022/04/26 12:56:11;;;;;;;5.05;1.50;;;19.60;73.90;;;;;;6366672;22;20391;-77
2022/04/26 12:58:38;;;;;;;2.92;1.90;;;19.60;74.20;;;;;;6366645;22;20970;-77
2022/04/26 13:01:05;;;;;;;5.00;1.80;;;19.60;74.30;;;;;;6338588;22;20014;-77
2022/04/26 13:03:31;;;;;;;2.65;1.50;;;19.50;74.70;;;;;;6337881;22;20343;-77
2022/04/26 13:06:09;;;;;;;4.85;2.20;;;19.50;75.00;;;;;;6338769;22;20002;-77
2022/04/26 13:08:36;;;;;;;5.57;2.60;;;19.40;75.90;;;;;;6369372;22;19999;-77
2022/04/26 13:11:04;;;;;;;6.07;2.90;;;19.40;75.40;;;;;;6369165;22;20006;-77
2022/04/26 13:13:30;;;;;;;5.60;3.15;;;19.40;75.40;;;;;;6368982;22;20074;-76
2022/04/26 13:15:56;;;;;;;7.68;2.95;;;19.40;75.50;;;;;;6368035;22;20563;-77
2022/04/26 13:18:22;;;;;;;4.88;2.50;;;19.50;75.40;;;;;;6341371;22;19999;-77
2022/04/26 13:20:48;;;;;;;7.28;1.95;;;19.60;75.30;;;;;;6369228;22;20136;-77
2022/04/26 13:23:16;;;;;;;2.95;1.75;;;19.60;75.50;;;;;;6369035;22;20029;-77
2022/04/26 13:25:43;;;;;;;4.05;2.10;;;20.00;76.00;;;;;;6369473;22;20002;-77
2022/04/26 13:28:09;;;;;;;3.92;1.83;;;20.70;76.00;;;;;;6369340;22;20043;-77
2022/04/26 13:30:35;;;;;;;3.42;1.88;;;21.50;74.00;;;;;;6368382;22;20029;-77
2022/04/26 13:33:02;;;;;;;4.18;1.75;;;22.20;69.50;;;;;;6337021;22;20002;-78
2022/04/26 13:35:28;;;;;;;3.85;1.70;;;22.50;69.60;;;;;;6362177;22;20002;-77
2022/04/26 13:37:58;;;;;;;5.75;2.10;;;23.10;67.00;;;;;;6364889;22;20003;-77
2022/04/26 13:40:24;;;;;;;5.55;2.25;;;23.70;67.50;;;;;;6363903;22;20325;-78
2022/04/26 13:42:51;;;;;;;4.38;1.70;;;23.80;62.00;;;;;;6364501;22;20006;-78
2022/04/26 13:45:17;;;;;;;6.90;2.25;;;23.70;65.00;;;;;;6364536;22;20007;-78
2022/04/26 13:47:45;;;;;;;3.83;1.63;;;23.50;63.20;;;;;;6365002;22;20034;-77
2022/04/26 13:50:12;;;;;;;3.10;1.60;;;23.40;64.60;;;;;;6365443;22;20085;-77
2022/04/26 13:52:40;;;;;;;4.15;2.00;;;23.30;64.80;;;;;;6364941;22;20467;-77
2022/04/26 13:55:07;;;;;;;5.13;2.35;;;23.10;64.70;;;;;;6365287;22;20483;-77
2022/04/26 13:57:33;;;;;;;5.70;2.33;;;22.90;65.60;;;;;;6365397;22;20455;-77
2022/04/26 13:59:59;;;;;;;5.68;2.35;;;22.90;65.90;;;;;;6367283;22;20020;-78
2022/04/26 14:02:25;;;;;;;4.30;1.70;;;22.80;66.00;;;;;;6367303;22;20051;-77
2022/04/26 14:04:51;;;;;;;4.85;2.05;;;22.80;66.00;;;;;;6367694;22;20436;-77
2022/04/26 14:07:40;;;;;;;5.18;1.83;;;22.60;66.50;;;;;;6367292;22;19998;-78
2022/04/26 14:10:07;;;;;;;3.93;1.70;;;22.20;67.20;;;;;;6338303;22;20014;-78
2022/04/26 14:12:34;;;;;;;4.55;1.88;;;22.10;67.20;;;;;;6367371;22;20036;-77
2022/04/26 14:23:12;;;;;;;4.30;1.35;;;22.00;67.40;;;;;;6369863;22;20063;-77
2022/04/26 14:25:38;;;;;;;4.50;1.70;;;22.00;67.60;;;;;;6369754;22;20051;-76
2022/04/26 14:28:05;;;;;;;3.17;1.52;;;21.90;67.50;;;;;;6369097;22;20003;-76
2022/04/26 14:30:31;;;;;;;2.88;1.33;;;21.90;67.80;;;;;;6368939;22;20078;-76
2022/04/26 14:32:57;;;;;;;4.50;1.75;;;21.90;67.70;;;;;;6368913;22;20029;-77
2022/04/26 14:35:23;;;;;;;2.80;1.40;;;21.90;67.40;;;;;;6369687;22;20435;-77
2022/04/26 14:37:51;;;;;;;6.78;1.85;;;21.80;67.60;;;;;;6369485;22;19999;-77
2022/04/26 14:40:17;;;;;;;4.78;1.77;;;21.70;67.60;;;;;;6369872;22;20448;-77
2022/04/26 14:42:46;;;;;;;4.47;1.90;;;21.70;67.70;;;;;;6342030;22;20002;-83
2022/04/26 14:45:12;;;;;;;7.00;2.58;;;21.60;67.80;;;;;;6339749;22;20002;-77
2022/04/26 14:47:38;;;;;;;4.22;1.70;;;21.50;68.70;;;;;;6368533;22;20552;-77
2022/04/26 14:50:05;;;;;;;3.00;1.40;;;21.30;68.90;;;;;;6369426;22;20003;-77
2022/04/26 14:52:31;;;;;;;3.03;1.60;;;21.20;68.80;;;;;;6368142;22;20002;-77
2022/04/26 14:54:57;;;;;;;4.30;1.92;;;21.20;69.10;;;;;;6367842;22;20006;-77
2022/04/26 14:57:23;;;;;;;4.85;1.80;;;21.10;69.30;;;;;;6342772;22;20081;-76
2022/04/26 14:59:49;;;;;;;1.60;1.17;;;21.00;69.20;;;;;;6369141;22;20002;-77
2022/04/26 15:02:19;;;;;;;4.57;1.70;;;21.00;69.70;;;;;;6370387;22;20003;-77
2022/04/26 15:04:47;;;;;;;3.97;1.67;;;21.00;69.80;;;;;;6370046;22;20002;-77
2022/04/26 15:07:14;;;;;;;3.72;1.67;;;20.90;69.80;;;;;;6339530;22;20011;-77
2022/04/26 15:09:52;;;;;;;4.85;1.95;;;20.90;70.00;;;;;;6370424;22;19999;-77
2022/04/26 15:17:48;;;;;;;4.15;1.80;;;20.60;70.20;;;;;;6371016;22;20051;-77
2022/04/26 15:20:16;;;;;;;4.25;1.67;;;20.50;70.30;;;;;;6371144;22;19998;-77
2022/04/26 15:22:42;;;;;;;3.65;1.52;;;20.40;70.60;;;;;;6371577;22;20025;-77
2022/04/26 15:25:09;;;;;;;4.28;2.00;;;20.40;71.20;;;;;;6370885;22;20467;-76
2022/04/26 15:27:38;;;;;;;3.85;1.83;;;20.30;72.20;;;;;;6370864;22;20033;-77
2022/04/26 15:30:06;;;;;;;5.47;1.48;;;20.20;72.20;;;;;;6370877;22;20078;-76
2022/04/26 15:32:32;;;;;;;4.82;1.80;;;20.20;72.50;;;;;;6370641;22;19998;-76
2022/04/26 15:34:57;;;;;;;4.18;1.60;;;20.20;72.80;;;;;;6370926;22;20004;-76
2022/04/26 15:37:27;;;;;;;4.10;1.40;;;20.20;73.50;;;;;;6370644;22;20376;-77
2022/04/26 15:39:54;;;;;;;3.58;1.55;;;20.10;73.40;;;;;;6343138;22;20324;-77
2022/04/26 15:42:23;;;;;;;3.10;1.60;;;20.20;73.60;;;;;;6370584;22;20003;-77
2022/04/26 15:44:48;;;;;;;4.07;1.60;;;20.10;73.60;;;;;;6343234;22;20031;-77
2022/04/26 15:47:15;;;;;;;5.38;1.70;;;20.10;73.50;;;;;;6342445;22;20003;-76
2022/04/26 15:49:40;;;;;;;4.55;1.98;;;20.10;74.70;;;;;;6367877;22;20407;-77
2022/04/26 15:52:07;;;;;;;2.10;1.20;;;20.00;74.40;;;;;;6369356;22;20065;-77
2022/04/26 15:54:35;;;;;;;4.43;2.10;;;19.90;74.50;;;;;;6369792;22;20003;-77
2022/04/26 15:57:00;;;;;;;5.18;1.95;;;19.90;74.30;;;;;;6340242;22;20105;-76
2022/04/26 15:59:26;;;;;;;5.63;2.05;;;19.90;74.10;;;;;;6369136;22;20427;-77
2022/04/26 16:01:52;;;;;;;5.53;2.35;;;19.90;74.30;;;;;;6368490;22;20005;-79
2022/04/26 16:04:17;;;;;;;5.93;1.85;;;19.90;74.40;;;;;;6369373;22;19995;-78
2022/04/26 16:06:43;;;;;;;4.90;1.90;;;19.70;75.10;;;;;;6341145;22;20021;-78
2022/04/26 16:22:53;;;;;;;2.83;1.75;;;19.60;74.60;;;;;;6367864;22;20049;-78
2022/04/26 16:25:18;;;;;;;6.53;2.28;;;19.50;74.60;;;;;;6339178;22;20424;-78
2022/04/26 16:27:44;;;;;;;2.67;1.60;;;19.40;74.90;;;;;;6340946;22;20010;-78
2022/04/26 16:30:11;;;;;;;3.40;1.98;;;19.40;75.30;;;;;;6340935;22;20037;-76
2022/04/26 16:32:38;;;;;;;4.47;2.00;;;19.30;75.70;;;;;;6369281;22;20432;-76
2022/04/26 16:35:05;;;;;;;13.15;3.83;;;19.30;76.00;;;;;;6340711;22;19998;-76
2022/04/26 16:37:31;;;;;;;10.20;3.65;;;19.10;76.00;;;;;;6340994;22;20002;-76
2022/04/26 16:39:56;;;;;;;10.45;3.45;;;18.70;77.10;;;;;;6369095;22;20056;-86
2022/04/26 16:42:22;;;;;;;7.82;2.08;;;18.00;76.80;;;;;;6368284;22;20471;-76
2022/04/26 16:44:48;;;;;;;9.73;2.60;;;17.20;82.60;;;;;;6340316;22;20085;-76
2022/04/26 16:47:13;;;;;;;3.20;0.80;;;17.20;82.00;;;;;;6368377;22;20002;-76
2022/04/26 16:49:40;;;;;;;1.67;0.73;;;17.30;81.50;;;;;;6365644;22;20404;-74
2022/04/26 16:52:06;;;;;;;2.55;0.98;;;17.40;81.20;;;;;;6364371;22;20081;-76
2022/04/26 16:54:32;;;;;;;2.63;0.88;;;17.10;82.30;;;;;;6337354;22;20006;-76
2022/04/26 16:57:01;;;;;;;1.65;0.85;;;17.10;81.90;;;;;;6366058;22;20013;-75
2022/04/26 16:59:29;;;;;;;7.75;1.92;;;17.10;83.80;;;;;;6365489;22;20002;-76
2022/04/26 17:01:55;;;;;;;2.97;1.08;;;16.80;84.40;;;;;;6365146;22;20324;-76
2022/04/26 17:04:22;;;;;;;3.83;1.23;;;16.80;84.40;;;;;;6362750;22;20006;-75
2022/04/26 17:06:49;;;;;;;4.65;1.00;;;16.80;86.50;;;;;;6364827;22;20009;-75
2022/04/26 17:09:16;;;;;;;2.80;1.20;;;16.80;85.80;;;;;;6365102;22;20005;-75
2022/04/26 17:11:42;;;;;;;3.45;1.67;;;16.80;86.50;;;;;;6363100;22;20013;-75
2022/04/26 17:14:14;;;;;;;2.03;1.27;;;16.90;85.70;;;;;;6364633;22;20005;-75
2022/04/26 17:16:42;;;;;;;2.90;1.83;;;16.90;86.50;;;;;;6364004;22;20036;-75
2022/04/26 17:19:08;;;;;;;2.83;1.63;;;17.00;86.40;;;;;;6365228;22;20424;-76